sensor_id;sensor_type;location;lat;lon;timestamp;pressure;altitude;pressure_sealevel;temperature;humidity
74936;BME280;63501;55.570;37.488;2023-01-10T00:00:09;101108.63;;;-19.63;74.86
74936;BME280;63501;55.570;37.488;2023-01-10T00:02:36;101105.50;;;-19.58;74.80
74936;BME280;63501;55.570;37.488;2023-01-10T00:05:04;101098.63;;;-19.51;74.10
74936;BME280;63501;55.570;37.488;2023-01-10T00:07:31;101104.94;;;-19.44;74.00
74936;BME280;63501;55.570;37.488;2023-01-10T00:09:58;101111.84;;;-19.43;74.79
74936;BME280;63501;55.570;37.488;2023-01-10T00:12:25;101095.84;;;-19.49;75.08
74936;BME280;63501;55.570;37.488;2023-01-10T00:15:11;101113.66;;;-19.43;75.77
74936;BME280;63501;55.570;37.488;2023-01-10T00:17:38;101100.47;;;-19.43;75.26
74936;BME280;63501;55.570;37.488;2023-01-10T00:20:06;101093.56;;;-19.44;74.34
74936;BME280;63501;55.570;37.488;2023-01-10T00:22:33;101094.84;;;-19.48;74.83
74936;BME280;63501;55.570;37.488;2023-01-10T00:25:00;101086.59;;;-19.62;74.42
74936;BME280;63501;55.570;37.488;2023-01-10T00:27:29;101098.66;;;-19.43;75.83
74936;BME280;63501;55.570;37.488;2023-01-10T00:29:56;101082.41;;;-19.38;74.08
74936;BME280;63501;55.570;37.488;2023-01-10T00:32:27;101099.09;;;-19.30;74.26
74936;BME280;63501;55.570;37.488;2023-01-10T00:34:54;101092.00;;;-19.29;74.86
74936;BME280;63501;55.570;37.488;2023-01-10T00:37:21;101089.22;;;-19.28;75.85
74936;BME280;63501;55.570;37.488;2023-01-10T00:39:48;101089.72;;;-19.24;75.72
74936;BME280;63501;55.570;37.488;2023-01-10T00:42:15;101093.84;;;-19.21;74.68
74936;BME280;63501;55.570;37.488;2023-01-10T00:44:59;101092.03;;;-19.21;75.15
74936;BME280;63501;55.570;37.488;2023-01-10T00:47:28;101080.00;;;-19.23;75.48
74936;BME280;63501;55.570;37.488;2023-01-10T00:49:55;101080.97;;;-19.25;75.05
74936;BME280;63501;55.570;37.488;2023-01-10T00:52:22;101078.19;;;-19.23;74.86
74936;BME280;63501;55.570;37.488;2023-01-10T00:54:49;101066.34;;;-19.19;75.44
74936;BME280;63501;55.570;37.488;2023-01-10T00:57:16;101065.88;;;-19.14;75.37
74936;BME280;63501;55.570;37.488;2023-01-10T00:59:43;101071.97;;;-19.14;73.71
74936;BME280;63501;55.570;37.488;2023-01-10T01:02:10;101060.94;;;-19.17;74.50
74936;BME280;63501;55.570;37.488;2023-01-10T01:04:39;101054.16;;;-19.20;73.54
74936;BME280;63501;55.570;37.488;2023-01-10T01:07:07;101054.47;;;-19.23;74.26
74936;BME280;63501;55.570;37.488;2023-01-10T01:09:34;101053.03;;;-19.17;74.67
74936;BME280;63501;55.570;37.488;2023-01-10T01:12:22;101042.31;;;-19.16;75.13
74936;BME280;63501;55.570;37.488;2023-01-10T01:14:49;101050.38;;;-19.17;75.00
74936;BME280;63501;55.570;37.488;2023-01-10T01:17:16;101047.59;;;-19.16;74.63
74936;BME280;63501;55.570;37.488;2023-01-10T01:19:44;101052.22;;;-19.10;73.65
74936;BME280;63501;55.570;37.488;2023-01-10T01:22:11;101053.88;;;-19.09;74.38
74936;BME280;63501;55.570;37.488;2023-01-10T01:24:40;101056.19;;;-19.06;75.31
74936;BME280;63501;55.570;37.488;2023-01-10T01:27:07;101038.44;;;-18.95;76.03
74936;BME280;63501;55.570;37.488;2023-01-10T01:29:34;101046.69;;;-18.90;76.04
74936;BME280;63501;55.570;37.488;2023-01-10T01:32:01;101037.78;;;-18.89;75.57
74936;BME280;63501;55.570;37.488;2023-01-10T01:34:28;101049.66;;;-18.85;75.59
74936;BME280;63501;55.570;37.488;2023-01-10T01:36:56;101058.59;;;-18.78;75.11
74936;BME280;63501;55.570;37.488;2023-01-10T01:39:24;101051.50;;;-18.69;75.54
74936;BME280;63501;55.570;37.488;2023-01-10T01:41:51;101054.28;;;-18.63;75.00
74936;BME280;63501;55.570;37.488;2023-01-10T01:44:29;101055.47;;;-18.49;75.33
74936;BME280;63501;55.570;37.488;2023-01-10T01:47:02;101051.34;;;-18.44;74.27
74936;BME280;63501;55.570;37.488;2023-01-10T01:49:33;101044.09;;;-18.41;73.87
74936;BME280;63501;55.570;37.488;2023-01-10T01:52:05;101036.53;;;-18.45;75.40
74936;BME280;63501;55.570;37.488;2023-01-10T01:54:34;101042.63;;;-18.36;74.59
74936;BME280;63501;55.570;37.488;2023-01-10T01:57:06;101035.72;;;-18.29;74.50
74936;BME280;63501;55.570;37.488;2023-01-10T01:59:36;101029.94;;;-18.32;73.52
74936;BME280;63501;55.570;37.488;2023-01-10T02:02:04;101043.94;;;-18.32;72.58
74936;BME280;63501;55.570;37.488;2023-01-10T02:04:39;101034.38;;;-18.41;72.33
74936;BME280;63501;55.570;37.488;2023-01-10T02:07:09;101033.53;;;-18.41;73.36
74936;BME280;63501;55.570;37.488;2023-01-10T02:09:38;101032.56;;;-18.32;73.21
74936;BME280;63501;55.570;37.488;2023-01-10T02:12:08;101035.53;;;-18.27;72.90
74936;BME280;63501;55.570;37.488;2023-01-10T02:14:37;101045.09;;;-18.26;73.52
74936;BME280;63501;55.570;37.488;2023-01-10T02:17:07;101028.94;;;-18.31;74.05
74936;BME280;63501;55.570;37.488;2023-01-10T02:19:41;101038.81;;;-18.25;73.76
74936;BME280;63501;55.570;37.488;2023-01-10T02:22:35;101030.09;;;-18.34;73.61
74936;BME280;63501;55.570;37.488;2023-01-10T02:25:33;101050.06;;;-18.23;73.78
74936;BME280;63501;55.570;37.488;2023-01-10T02:28:42;101039.66;;;-18.25;74.13
74936;BME280;63501;55.570;37.488;2023-01-10T02:31:36;101043.09;;;-18.24;73.15
74936;BME280;63501;55.570;37.488;2023-01-10T02:34:18;101043.78;;;-18.22;73.87
74936;BME280;63501;55.570;37.488;2023-01-10T02:36:51;101046.56;;;-18.24;73.66
74936;BME280;63501;55.570;37.488;2023-01-10T02:39:26;101043.63;;;-18.21;74.34
74936;BME280;63501;55.570;37.488;2023-01-10T02:42:00;101032.38;;;-18.31;74.85
74936;BME280;63501;55.570;37.488;2023-01-10T02:44:33;101054.00;;;-18.19;74.76
74936;BME280;63501;55.570;37.488;2023-01-10T02:47:02;101039.00;;;-18.19;74.21
74936;BME280;63501;55.570;37.488;2023-01-10T02:49:40;101036.53;;;-18.20;74.89
74936;BME280;63501;55.570;37.488;2023-01-10T02:52:07;101041.31;;;-18.15;74.21
74936;BME280;63501;55.570;37.488;2023-01-10T02:54:35;101052.19;;;-18.10;74.65
74936;BME280;63501;55.570;37.488;2023-01-10T02:57:18;101054.81;;;-18.02;73.28
74936;BME280;63501;55.570;37.488;2023-01-10T03:00:06;101044.09;;;-17.93;73.83
74936;BME280;63501;55.570;37.488;2023-01-10T03:02:47;101031.56;;;-17.99;73.56
74936;BME280;63501;55.570;37.488;2023-01-10T03:05:29;101046.72;;;-17.84;74.46
74936;BME280;63501;55.570;37.488;2023-01-10T03:08:05;101043.09;;;-17.83;72.73
74936;BME280;63501;55.570;37.488;2023-01-10T03:10:41;101043.25;;;-17.85;73.67
74936;BME280;63501;55.570;37.488;2023-01-10T03:13:13;101046.06;;;-17.86;73.20
74936;BME280;63501;55.570;37.488;2023-01-10T03:15:43;101035.00;;;-17.82;72.98
74936;BME280;63501;55.570;37.488;2023-01-10T03:18:16;101045.72;;;-17.75;73.13
74936;BME280;63501;55.570;37.488;2023-01-10T03:20:48;101024.25;;;-17.80;74.11
74936;BME280;63501;55.570;37.488;2023-01-10T03:23:18;101027.06;;;-17.74;72.41
74936;BME280;63501;55.570;37.488;2023-01-10T03:25:48;101020.59;;;-17.71;74.03
74936;BME280;63501;55.570;37.488;2023-01-10T03:28:19;101035.44;;;-17.70;73.01
74936;BME280;63501;55.570;37.488;2023-01-10T03:30:50;101042.56;;;-17.71;74.08
74936;BME280;63501;55.570;37.488;2023-01-10T03:33:21;101044.91;;;-17.76;72.64
74936;BME280;63501;55.570;37.488;2023-01-10T03:36:01;101042.38;;;-17.69;74.01
74936;BME280;63501;55.570;37.488;2023-01-10T03:38:40;101029.84;;;-17.67;73.89
74936;BME280;63501;55.570;37.488;2023-01-10T03:41:12;101043.88;;;-17.67;73.60
74936;BME280;63501;55.570;37.488;2023-01-10T03:43:46;101028.03;;;-17.67;73.67
74936;BME280;63501;55.570;37.488;2023-01-10T03:46:35;101031.13;;;-17.63;72.70
74936;BME280;63501;55.570;37.488;2023-01-10T03:49:05;101027.16;;;-17.59;73.88
74936;BME280;63501;55.570;37.488;2023-01-10T03:51:36;101042.97;;;-17.51;74.00
74936;BME280;63501;55.570;37.488;2023-01-10T03:54:05;101064.44;;;-17.46;74.09
74936;BME280;63501;55.570;37.488;2023-01-10T03:56:43;101063.63;;;-17.46;73.19
74936;BME280;63501;55.570;37.488;2023-01-10T03:59:10;101064.44;;;-17.38;74.65
74936;BME280;63501;55.570;37.488;2023-01-10T04:01:37;101058.47;;;-17.31;73.39
74936;BME280;63501;55.570;37.488;2023-01-10T04:04:04;101063.94;;;-17.33;74.68
74936;BME280;63501;55.570;37.488;2023-01-10T04:06:31;101063.91;;;-17.25;73.93
74936;BME280;63501;55.570;37.488;2023-01-10T04:09:00;101063.69;;;-17.15;74.06
74936;BME280;63501;55.570;37.488;2023-01-10T04:11:27;101060.56;;;-17.11;73.67
74936;BME280;63501;55.570;37.488;2023-01-10T04:13:54;101064.47;;;-17.06;74.16
74936;BME280;63501;55.570;37.488;2023-01-10T04:16:21;101063.66;;;-17.07;73.08
74936;BME280;63501;55.570;37.488;2023-01-10T04:18:48;101067.28;;;-17.00;72.72
74936;BME280;63501;55.570;37.488;2023-01-10T04:21:15;101059.63;;;-16.95;73.66
74936;BME280;63501;55.570;37.488;2023-01-10T04:23:42;101059.00;;;-16.97;73.60
74936;BME280;63501;55.570;37.488;2023-01-10T04:26:11;101063.41;;;-16.89;73.75
74936;BME280;63501;55.570;37.488;2023-01-10T04:28:38;101054.00;;;-16.92;73.60
74936;BME280;63501;55.570;37.488;2023-01-10T04:31:05;101063.88;;;-16.77;74.16
74936;BME280;63501;55.570;37.488;2023-01-10T04:33:32;101062.19;;;-16.70;72.74
74936;BME280;63501;55.570;37.488;2023-01-10T04:35:59;101065.81;;;-16.71;73.45
74936;BME280;63501;55.570;37.488;2023-01-10T04:38:26;101075.41;;;-16.70;72.99
74936;BME280;63501;55.570;37.488;2023-01-10T04:40:54;101065.09;;;-16.65;73.46
74936;BME280;63501;55.570;37.488;2023-01-10T04:43:23;101070.84;;;-16.62;73.51
74936;BME280;63501;55.570;37.488;2023-01-10T04:45:50;101069.69;;;-16.59;72.40
74936;BME280;63501;55.570;37.488;2023-01-10T04:48:17;101066.03;;;-16.58;73.11
74936;BME280;63501;55.570;37.488;2023-01-10T04:50:48;101066.84;;;-16.58;72.59
74936;BME280;63501;55.570;37.488;2023-01-10T04:53:15;101084.22;;;-16.55;72.61
74936;BME280;63501;55.570;37.488;2023-01-10T04:55:43;101075.59;;;-16.49;73.12
74936;BME280;63501;55.570;37.488;2023-01-10T04:58:10;101077.34;;;-16.41;73.49
74936;BME280;63501;55.570;37.488;2023-01-10T05:00:39;101083.13;;;-16.38;72.49
74936;BME280;63501;55.570;37.488;2023-01-10T05:03:06;101073.06;;;-16.42;72.14
74936;BME280;63501;55.570;37.488;2023-01-10T05:05:33;101076.81;;;-16.37;72.41
74936;BME280;63501;55.570;37.488;2023-01-10T05:08:00;101078.13;;;-16.33;72.71
74936;BME280;63501;55.570;37.488;2023-01-10T05:10:27;101080.41;;;-16.30;72.06
74936;BME280;63501;55.570;37.488;2023-01-10T05:12:54;101080.19;;;-16.20;73.28
74936;BME280;63501;55.570;37.488;2023-01-10T05:15:21;101082.47;;;-16.17;72.64
74936;BME280;63501;55.570;37.488;2023-01-10T05:17:56;101088.94;;;-16.19;72.53
74936;BME280;63501;55.570;37.488;2023-01-10T05:20:24;101094.97;;;-16.25;72.14
74936;BME280;63501;55.570;37.488;2023-01-10T05:22:51;101102.00;;;-16.18;72.29
74936;BME280;63501;55.570;37.488;2023-01-10T05:25:18;101113.94;;;-16.22;72.39
74936;BME280;63501;55.570;37.488;2023-01-10T05:27:45;101119.09;;;-16.20;71.95
74936;BME280;63501;55.570;37.488;2023-01-10T05:30:13;101125.84;;;-16.18;72.71
74936;BME280;63501;55.570;37.488;2023-01-10T05:32:40;101130.63;;;-16.13;72.20
74936;BME280;63501;55.570;37.488;2023-01-10T05:35:09;101139.06;;;-16.10;71.78
74936;BME280;63501;55.570;37.488;2023-01-10T05:37:36;101136.81;;;-15.98;71.91
74936;BME280;63501;55.570;37.488;2023-01-10T05:40:04;101122.75;;;-15.98;71.45
74936;BME280;63501;55.570;37.488;2023-01-10T05:42:31;101134.09;;;-15.90;72.52
74936;BME280;63501;55.570;37.488;2023-01-10T05:44:58;101142.88;;;-15.89;71.91
74936;BME280;63501;55.570;37.488;2023-01-10T05:47:25;101137.81;;;-15.99;71.45
74936;BME280;63501;55.570;37.488;2023-01-10T05:49:52;101141.63;;;-16.02;71.75
74936;BME280;63501;55.570;37.488;2023-01-10T05:52:21;101151.19;;;-15.92;72.57
74936;BME280;63501;55.570;37.488;2023-01-10T05:54:48;101152.81;;;-15.91;71.74
74936;BME280;63501;55.570;37.488;2023-01-10T05:57:15;101157.75;;;-15.88;71.22
74936;BME280;63501;55.570;37.488;2023-01-10T05:59:43;101140.81;;;-15.79;71.56
74936;BME280;63501;55.570;37.488;2023-01-10T06:02:10;101149.41;;;-15.77;71.76
74936;BME280;63501;55.570;37.488;2023-01-10T06:04:37;101156.53;;;-15.78;72.28
74936;BME280;63501;55.570;37.488;2023-01-10T06:07:04;101144.56;;;-15.73;72.26
74936;BME280;63501;55.570;37.488;2023-01-10T06:09:33;101158.13;;;-15.68;72.01
74936;BME280;63501;55.570;37.488;2023-01-10T06:12:00;101147.31;;;-15.67;72.24
74936;BME280;63501;55.570;37.488;2023-01-10T06:14:27;101153.09;;;-15.63;71.88
74936;BME280;63501;55.570;37.488;2023-01-10T06:16:54;101144.75;;;-15.60;72.10
74936;BME280;63501;55.570;37.488;2023-01-10T06:19:21;101147.81;;;-15.63;72.21
74936;BME280;63501;55.570;37.488;2023-01-10T06:21:48;101161.63;;;-15.53;72.35
74936;BME280;63501;55.570;37.488;2023-01-10T06:24:15;101168.75;;;-15.54;72.06
74936;BME280;63501;55.570;37.488;2023-01-10T06:26:44;101166.53;;;-15.50;72.94
74936;BME280;63501;55.570;37.488;2023-01-10T06:29:11;101170.84;;;-15.49;72.62
74936;BME280;63501;55.570;37.488;2023-01-10T06:31:38;101191.00;;;-15.40;72.40
74936;BME280;63501;55.570;37.488;2023-01-10T06:34:05;101174.06;;;-15.39;72.11
74936;BME280;63501;55.570;37.488;2023-01-10T06:36:32;101175.72;;;-15.38;72.00
74936;BME280;63501;55.570;37.488;2023-01-10T06:38:59;101170.41;;;-15.38;72.39
74936;BME280;63501;55.570;37.488;2023-01-10T06:41:26;101175.94;;;-15.25;72.11
74936;BME280;63501;55.570;37.488;2023-01-10T06:43:55;101170.19;;;-15.13;71.33
74936;BME280;63501;55.570;37.488;2023-01-10T06:46:22;101164.59;;;-15.04;71.58
74936;BME280;63501;55.570;37.488;2023-01-10T06:48:49;101162.22;;;-14.99;71.76
74936;BME280;63501;55.570;37.488;2023-01-10T06:51:16;101156.78;;;-14.97;71.03
74936;BME280;63501;55.570;37.488;2023-01-10T06:53:43;101171.13;;;-14.91;70.85
74936;BME280;63501;55.570;37.488;2023-01-10T06:56:10;101157.13;;;-15.00;71.27
74936;BME280;63501;55.570;37.488;2023-01-10T06:58:38;101182.94;;;-14.94;70.97
74936;BME280;63501;55.570;37.488;2023-01-10T07:01:11;101176.69;;;-15.01;71.00
74936;BME280;63501;55.570;37.488;2023-01-10T07:03:39;101195.91;;;-14.99;70.65
74936;BME280;63501;55.570;37.488;2023-01-10T07:06:07;101194.75;;;-14.97;70.73
74936;BME280;63501;55.570;37.488;2023-01-10T07:08:35;101191.44;;;-14.84;70.99
74936;BME280;63501;55.570;37.488;2023-01-10T07:11:02;101191.44;;;-14.84;70.84
74936;BME280;63501;55.570;37.488;2023-01-10T07:13:29;101194.19;;;-14.77;70.79
74936;BME280;63501;55.570;37.488;2023-01-10T07:16:01;101182.84;;;-14.71;70.68
74936;BME280;63501;55.570;37.488;2023-01-10T07:18:29;101181.94;;;-14.63;69.95
74936;BME280;63501;55.570;37.488;2023-01-10T07:20:56;101174.88;;;-14.56;69.87
74936;BME280;63501;55.570;37.488;2023-01-10T07:23:23;101178.28;;;-14.62;69.77
74936;BME280;63501;55.570;37.488;2023-01-10T07:25:50;101178.97;;;-14.54;69.98
74936;BME280;63501;55.570;37.488;2023-01-10T07:28:17;101199.91;;;-14.44;69.86
74936;BME280;63501;55.570;37.488;2023-01-10T07:30:44;101184.56;;;-14.49;68.95
74936;BME280;63501;55.570;37.488;2023-01-10T07:33:11;101190.31;;;-14.45;69.50
74936;BME280;63501;55.570;37.488;2023-01-10T07:35:40;101185.22;;;-14.47;69.14
74936;BME280;63501;55.570;37.488;2023-01-10T07:38:07;101179.69;;;-14.45;69.48
74936;BME280;63501;55.570;37.488;2023-01-10T07:40:34;101190.78;;;-14.42;68.92
74936;BME280;63501;55.570;37.488;2023-01-10T07:43:01;101196.53;;;-14.38;69.44
74936;BME280;63501;55.570;37.488;2023-01-10T07:45:29;101190.38;;;-14.24;69.40
74936;BME280;63501;55.570;37.488;2023-01-10T07:47:57;101197.66;;;-14.11;69.26
74936;BME280;63501;55.570;37.488;2023-01-10T07:50:25;101201.22;;;-14.04;68.87
74936;BME280;63501;55.570;37.488;2023-01-10T07:52:54;101200.97;;;-14.09;68.29
74936;BME280;63501;55.570;37.488;2023-01-10T07:55:21;101199.88;;;-14.15;68.20
74936;BME280;63501;55.570;37.488;2023-01-10T07:57:48;101202.63;;;-14.08;68.67
74936;BME280;63501;55.570;37.488;2023-01-10T08:00:16;101194.06;;;-14.03;68.80
74936;BME280;63501;55.570;37.488;2023-01-10T08:02:44;101200.94;;;-13.94;68.51
74936;BME280;63501;55.570;37.488;2023-01-10T08:05:11;101204.47;;;-13.87;68.18
74936;BME280;63501;55.570;37.488;2023-01-10T08:07:39;101188.84;;;-13.75;68.24
74936;BME280;63501;55.570;37.488;2023-01-10T08:10:08;101197.41;;;-13.58;67.40
74936;BME280;63501;55.570;37.488;2023-01-10T08:12:36;101199.28;;;-13.52;67.96
74936;BME280;63501;55.570;37.488;2023-01-10T08:15:03;101191.97;;;-13.50;67.23
74936;BME280;63501;55.570;37.488;2023-01-10T08:17:32;101189.09;;;-13.49;66.79
74936;BME280;63501;55.570;37.488;2023-01-10T08:19:59;101191.00;;;-13.64;66.32
74936;BME280;63501;55.570;37.488;2023-01-10T08:22:26;101190.38;;;-13.66;66.99
74936;BME280;63501;55.570;37.488;2023-01-10T08:24:53;101188.59;;;-13.59;67.17
74936;BME280;63501;55.570;37.488;2023-01-10T08:27:21;101192.84;;;-13.43;67.35
74936;BME280;63501;55.570;37.488;2023-01-10T08:29:49;101188.28;;;-13.28;66.45
74936;BME280;63501;55.570;37.488;2023-01-10T08:32:16;101192.19;;;-13.24;66.09
74936;BME280;63501;55.570;37.488;2023-01-10T08:34:43;101195.75;;;-13.38;66.59
74936;BME280;63501;55.570;37.488;2023-01-10T08:37:11;101191.69;;;-13.34;65.68
74936;BME280;63501;55.570;37.488;2023-01-10T08:39:39;101193.78;;;-13.29;65.94
74936;BME280;63501;55.570;37.488;2023-01-10T08:42:06;101185.88;;;-13.16;66.72
74936;BME280;63501;55.570;37.488;2023-01-10T08:44:35;101182.38;;;-13.17;65.33
74936;BME280;63501;55.570;37.488;2023-01-10T08:47:02;101188.56;;;-13.10;65.48
74936;BME280;63501;55.570;37.488;2023-01-10T08:49:29;101178.94;;;-13.11;66.76
74936;BME280;63501;55.570;37.488;2023-01-10T08:51:56;101166.72;;;-13.05;66.39
74936;BME280;63501;55.570;37.488;2023-01-10T08:54:23;101189.44;;;-13.02;64.79
74936;BME280;63501;55.570;37.488;2023-01-10T08:56:50;101185.41;;;-13.20;65.86
74936;BME280;63501;55.570;37.488;2023-01-10T08:59:18;101184.03;;;-13.16;66.37
74936;BME280;63501;55.570;37.488;2023-01-10T09:01:46;101186.31;;;-13.13;66.49
74936;BME280;63501;55.570;37.488;2023-01-10T09:04:13;101181.63;;;-13.11;66.23
74936;BME280;63501;55.570;37.488;2023-01-10T09:06:40;101188.00;;;-13.05;66.63
74936;BME280;63501;55.570;37.488;2023-01-10T09:09:07;101187.81;;;-13.03;66.31
74936;BME280;63501;55.570;37.488;2023-01-10T09:11:35;101171.41;;;-13.07;65.80
74936;BME280;63501;55.570;37.488;2023-01-10T09:14:02;101163.88;;;-12.97;65.98
74936;BME280;63501;55.570;37.488;2023-01-10T09:16:29;101162.72;;;-12.88;65.84
74936;BME280;63501;55.570;37.488;2023-01-10T09:18:58;101179.81;;;-12.69;66.06
74936;BME280;63501;55.570;37.488;2023-01-10T09:21:26;101171.34;;;-12.51;65.54
74936;BME280;63501;55.570;37.488;2023-01-10T09:42:10;101164.09;;;-12.57;64.54
74936;BME280;63501;55.570;37.488;2023-01-10T09:44:46;101181.94;;;-12.58;65.01
74936;BME280;63501;55.570;37.488;2023-01-10T09:47:23;101164.31;;;-12.59;64.15
74936;BME280;63501;55.570;37.488;2023-01-10T09:50:03;101162.72;;;-12.46;65.31
74936;BME280;63501;55.570;37.488;2023-01-10T09:52:34;101161.94;;;-12.40;64.44
74936;BME280;63501;55.570;37.488;2023-01-10T09:55:15;101168.94;;;-12.39;63.34
74936;BME280;63501;55.570;37.488;2023-01-10T09:57:45;101157.16;;;-12.51;63.50
74936;BME280;63501;55.570;37.488;2023-01-10T10:00:14;101160.84;;;-12.52;63.83
74936;BME280;63501;55.570;37.488;2023-01-10T10:02:44;101161.88;;;-12.54;63.46
74936;BME280;63501;55.570;37.488;2023-01-10T10:05:18;101159.47;;;-12.42;63.57
74936;BME280;63501;55.570;37.488;2023-01-10T10:07:50;101161.25;;;-12.56;63.07
74936;BME280;63501;55.570;37.488;2023-01-10T10:10:21;101168.22;;;-12.55;63.81
74936;BME280;63501;55.570;37.488;2023-01-10T10:12:58;101166.03;;;-12.44;64.78
74936;BME280;63501;55.570;37.488;2023-01-10T10:15:31;101161.16;;;-12.34;63.55
74936;BME280;63501;55.570;37.488;2023-01-10T10:18:09;101165.50;;;-12.27;63.43
74936;BME280;63501;55.570;37.488;2023-01-10T10:20:50;101159.09;;;-12.32;62.76
74936;BME280;63501;55.570;37.488;2023-01-10T10:23:35;101172.00;;;-12.36;63.31
74936;BME280;63501;55.570;37.488;2023-01-10T10:26:11;101156.19;;;-12.44;62.79
74936;BME280;63501;55.570;37.488;2023-01-10T10:29:05;101162.78;;;-12.40;63.59
74936;BME280;63501;55.570;37.488;2023-01-10T10:31:50;101155.19;;;-12.36;63.49
74936;BME280;63501;55.570;37.488;2023-01-10T10:34:24;101164.41;;;-12.39;63.68
74936;BME280;63501;55.570;37.488;2023-01-10T10:36:59;101153.56;;;-12.37;62.98
74936;BME280;63501;55.570;37.488;2023-01-10T10:39:32;101164.81;;;-12.35;63.58
74936;BME280;63501;55.570;37.488;2023-01-10T10:42:02;101154.97;;;-12.41;62.59
74936;BME280;63501;55.570;37.488;2023-01-10T10:44:36;101144.50;;;-12.43;63.56
74936;BME280;63501;55.570;37.488;2023-01-10T10:47:12;101145.94;;;-12.40;63.53
74936;BME280;63501;55.570;37.488;2023-01-10T10:49:43;101149.28;;;-12.32;63.32
74936;BME280;63501;55.570;37.488;2023-01-10T10:52:21;101154.63;;;-12.25;62.51
74936;BME280;63501;55.570;37.488;2023-01-10T10:54:49;101150.97;;;-12.17;63.30
74936;BME280;63501;55.570;37.488;2023-01-10T10:57:18;101142.75;;;-12.16;62.97
74936;BME280;63501;55.570;37.488;2023-01-10T10:59:48;101150.19;;;-12.05;63.47
74936;BME280;63501;55.570;37.488;2023-01-10T11:02:23;101154.72;;;-11.98;62.62
74936;BME280;63501;55.570;37.488;2023-01-10T11:04:52;101151.00;;;-11.97;62.46
74936;BME280;63501;55.570;37.488;2023-01-10T11:07:19;101166.16;;;-12.11;61.88
74936;BME280;63501;55.570;37.488;2023-01-10T11:09:48;101166.50;;;-12.28;63.36
74936;BME280;63501;55.570;37.488;2023-01-10T11:12:29;101171.06;;;-12.15;63.42
74936;BME280;63501;55.570;37.488;2023-01-10T11:14:58;101176.16;;;-12.20;63.77
74936;BME280;63501;55.570;37.488;2023-01-10T11:17:29;101174.38;;;-12.06;63.66
74936;BME280;63501;55.570;37.488;2023-01-10T11:19:58;101170.91;;;-12.00;62.54
74936;BME280;63501;55.570;37.488;2023-01-10T11:22:27;101157.38;;;-11.98;63.17
74936;BME280;63501;55.570;37.488;2023-01-10T11:24:57;101174.97;;;-12.11;63.43
74936;BME280;63501;55.570;37.488;2023-01-10T11:27:27;101170.69;;;-12.05;63.62
74936;BME280;63501;55.570;37.488;2023-01-10T11:29:58;101165.75;;;-12.02;63.58
74936;BME280;63501;55.570;37.488;2023-01-10T11:32:32;101165.38;;;-11.98;63.81
74936;BME280;63501;55.570;37.488;2023-01-10T11:35:02;101165.75;;;-12.02;62.67
74936;BME280;63501;55.570;37.488;2023-01-10T11:37:33;101159.66;;;-11.89;62.74
74936;BME280;63501;55.570;37.488;2023-01-10T11:40:18;101163.75;;;-11.93;62.37
74936;BME280;63501;55.570;37.488;2023-01-10T11:42:46;101169.50;;;-11.89;62.88
74936;BME280;63501;55.570;37.488;2023-01-10T11:45:21;101168.06;;;-11.85;62.89
74936;BME280;63501;55.570;37.488;2023-01-10T11:47:51;101164.38;;;-11.84;62.61
74936;BME280;63501;55.570;37.488;2023-01-10T11:50:22;101178.09;;;-11.74;62.39
74936;BME280;63501;55.570;37.488;2023-01-10T11:52:50;101177.69;;;-11.84;63.22
74936;BME280;63501;55.570;37.488;2023-01-10T11:55:19;101177.69;;;-11.97;63.04
74936;BME280;63501;55.570;37.488;2023-01-10T11:57:55;101178.47;;;-12.10;63.68
74936;BME280;63501;55.570;37.488;2023-01-10T12:00:35;101182.19;;;-12.05;63.65
74936;BME280;63501;55.570;37.488;2023-01-10T12:03:15;101194.91;;;-12.00;63.37
74936;BME280;63501;55.570;37.488;2023-01-10T12:05:49;101193.69;;;-11.91;62.56
74936;BME280;63501;55.570;37.488;2023-01-10T12:08:24;101197.84;;;-11.82;63.17
74936;BME280;63501;55.570;37.488;2023-01-10T12:10:57;101192.88;;;-11.98;63.24
74936;BME280;63501;55.570;37.488;2023-01-10T12:13:26;101200.44;;;-12.02;63.46
74936;BME280;63501;55.570;37.488;2023-01-10T12:16:20;101197.75;;;-12.02;62.76
74936;BME280;63501;55.570;37.488;2023-01-10T12:18:49;101188.25;;;-12.24;62.76
74936;BME280;63501;55.570;37.488;2023-01-10T12:21:22;101193.56;;;-12.31;64.27
74936;BME280;63501;55.570;37.488;2023-01-10T12:23:53;101185.16;;;-12.28;63.44
74936;BME280;63501;55.570;37.488;2023-01-10T12:26:20;101195.03;;;-12.21;63.28
74936;BME280;63501;55.570;37.488;2023-01-10T12:28:51;101195.44;;;-12.18;64.30
74936;BME280;63501;55.570;37.488;2023-01-10T12:31:21;101197.72;;;-12.15;64.49
74936;BME280;63501;55.570;37.488;2023-01-10T12:33:53;101189.53;;;-12.13;63.76
74936;BME280;63501;55.570;37.488;2023-01-10T12:36:43;101188.34;;;-12.04;63.23
74936;BME280;63501;55.570;37.488;2023-01-10T12:39:19;101188.09;;;-12.16;63.68
74936;BME280;63501;55.570;37.488;2023-01-10T12:41:54;101185.16;;;-12.28;64.68
74936;BME280;63501;55.570;37.488;2023-01-10T12:44:44;101185.06;;;-12.47;63.61
74936;BME280;63501;55.570;37.488;2023-01-10T12:47:19;101192.81;;;-12.52;64.66
74936;BME280;63501;55.570;37.488;2023-01-10T12:52:36;101208.66;;;-12.44;64.17
74936;BME280;63501;55.570;37.488;2023-01-10T12:55:13;101214.59;;;-12.49;64.40
74936;BME280;63501;55.570;37.488;2023-01-10T12:57:41;101219.75;;;-12.41;64.88
74936;BME280;63501;55.570;37.488;2023-01-10T13:00:17;101212.56;;;-12.40;64.46
74936;BME280;63501;55.570;37.488;2023-01-10T13:02:50;101209.91;;;-12.40;64.49
74936;BME280;63501;55.570;37.488;2023-01-10T13:05:20;101215.63;;;-12.43;64.30
74936;BME280;63501;55.570;37.488;2023-01-10T13:07:47;101213.75;;;-12.49;64.69